sensor_id;sensor_type;location;lat;lon;timestamp;pressure;altitude;pressure_sealevel;temperature;humidity
39275;BME280;24980;48.874;2.332;2024-03-02T00:02:02;99380.20;;;24.82;40.67
39275;BME280;24980;48.874;2.332;2024-03-02T00:04:32;99381.95;;;24.83;40.70
39275;BME280;24980;48.874;2.332;2024-03-02T00:07:02;99382.23;;;24.80;40.76
39275;BME280;24980;48.874;2.332;2024-03-02T00:09:33;99386.66;;;24.79;40.79
39275;BME280;24980;48.874;2.332;2024-03-02T00:12:04;99387.00;;;24.81;40.80
39275;BME280;24980;48.874;2.332;2024-03-02T00:14:34;99387.12;;;24.86;40.80
39275;BME280;24980;48.874;2.332;2024-03-02T00:17:04;99386.47;;;24.91;40.77
39275;BME280;24980;48.874;2.332;2024-03-02T00:19:38;99384.87;;;24.95;40.78
39275;BME280;24980;48.874;2.332;2024-03-02T00:22:04;99386.75;;;24.98;40.79
39275;BME280;24980;48.874;2.332;2024-03-02T00:24:35;99387.88;;;25.00;40.83
39275;BME280;24980;48.874;2.332;2024-03-02T00:27:07;99389.66;;;25.04;40.85
39275;BME280;24980;48.874;2.332;2024-03-02T00:29:35;99388.05;;;25.07;40.84
39275;BME280;24980;48.874;2.332;2024-03-02T00:32:13;99387.99;;;25.10;40.85
39275;BME280;24980;48.874;2.332;2024-03-02T00:34:36;99385.70;;;25.12;40.86
39275;BME280;24980;48.874;2.332;2024-03-02T00:37:06;99392.40;;;25.15;40.87
39275;BME280;24980;48.874;2.332;2024-03-02T00:39:37;99394.45;;;25.18;40.86
39275;BME280;24980;48.874;2.332;2024-03-02T00:42:07;99399.09;;;25.19;40.85
39275;BME280;24980;48.874;2.332;2024-03-02T00:44:37;99404.41;;;25.17;40.87
39275;BME280;24980;48.874;2.332;2024-03-02T00:47:07;99409.81;;;25.18;40.88
39275;BME280;24980;48.874;2.332;2024-03-02T00:49:37;99404.80;;;25.18;40.90
39275;BME280;24980;48.874;2.332;2024-03-02T00:52:07;99401.62;;;25.15;40.94
39275;BME280;24980;48.874;2.332;2024-03-02T00:54:37;99410.48;;;25.16;40.95
39275;BME280;24980;48.874;2.332;2024-03-02T00:57:10;99416.70;;;25.16;40.96
39275;BME280;24980;48.874;2.332;2024-03-02T00:59:38;99423.19;;;25.15;40.97
39275;BME280;24980;48.874;2.332;2024-03-02T01:02:08;99422.24;;;25.15;40.99
39275;BME280;24980;48.874;2.332;2024-03-02T01:04:38;99426.79;;;25.17;40.97
39275;BME280;24980;48.874;2.332;2024-03-02T01:07:09;99426.33;;;25.18;40.97
39275;BME280;24980;48.874;2.332;2024-03-02T01:09:39;99426.28;;;25.17;40.97
39275;BME280;24980;48.874;2.332;2024-03-02T01:12:09;99421.92;;;25.18;40.95
39275;BME280;24980;48.874;2.332;2024-03-02T01:14:39;99426.90;;;25.15;40.96
39275;BME280;24980;48.874;2.332;2024-03-02T01:17:10;99427.94;;;25.13;40.99
39275;BME280;24980;48.874;2.332;2024-03-02T01:19:41;99430.91;;;25.13;40.98
39275;BME280;24980;48.874;2.332;2024-03-02T01:22:10;99427.95;;;25.13;41.00
39275;BME280;24980;48.874;2.332;2024-03-02T01:24:40;99425.98;;;25.15;40.97
39275;BME280;24980;48.874;2.332;2024-03-02T01:27:11;99425.75;;;25.14;40.97
39275;BME280;24980;48.874;2.332;2024-03-02T01:29:41;99429.61;;;25.14;40.97
39275;BME280;24980;48.874;2.332;2024-03-02T01:32:11;99427.23;;;25.14;40.95
39275;BME280;24980;48.874;2.332;2024-03-02T01:34:41;99428.61;;;25.15;40.94
39275;BME280;24980;48.874;2.332;2024-03-02T01:37:12;99422.60;;;25.13;40.92
39275;BME280;24980;48.874;2.332;2024-03-02T01:39:42;99420.80;;;25.12;40.93
39275;BME280;24980;48.874;2.332;2024-03-02T01:42:12;99417.16;;;25.11;40.93
39275;BME280;24980;48.874;2.332;2024-03-02T01:44:42;99418.50;;;25.12;40.93
39275;BME280;24980;48.874;2.332;2024-03-02T01:47:12;99410.19;;;25.11;40.92
39275;BME280;24980;48.874;2.332;2024-03-02T01:49:42;99412.27;;;25.11;40.91
39275;BME280;24980;48.874;2.332;2024-03-02T01:52:12;99417.16;;;25.10;40.92
39275;BME280;24980;48.874;2.332;2024-03-02T01:54:42;99403.69;;;25.10;40.91
39275;BME280;24980;48.874;2.332;2024-03-02T01:57:13;99394.45;;;25.11;40.89
39275;BME280;24980;48.874;2.332;2024-03-02T01:59:43;99386.78;;;25.11;40.89
39275;BME280;24980;48.874;2.332;2024-03-02T02:02:14;99381.64;;;25.10;40.88
39275;BME280;24980;48.874;2.332;2024-03-02T02:04:44;99384.98;;;25.09;40.88
39275;BME280;24980;48.874;2.332;2024-03-02T02:07:14;99380.08;;;25.09;40.90
39275;BME280;24980;48.874;2.332;2024-03-02T02:09:47;99384.34;;;25.10;40.90
39275;BME280;24980;48.874;2.332;2024-03-02T02:12:15;99375.19;;;25.12;40.89
39275;BME280;24980;48.874;2.332;2024-03-02T02:14:49;99383.70;;;25.13;40.88
39275;BME280;24980;48.874;2.332;2024-03-02T02:17:16;99379.55;;;25.13;40.88
39275;BME280;24980;48.874;2.332;2024-03-02T02:19:46;99377.66;;;25.11;40.86
39275;BME280;24980;48.874;2.332;2024-03-02T02:22:16;99372.44;;;25.09;40.87
39275;BME280;24980;48.874;2.332;2024-03-02T02:24:46;99366.59;;;25.09;40.90
39275;BME280;24980;48.874;2.332;2024-03-02T02:27:16;99364.19;;;25.08;40.92
39275;BME280;24980;48.874;2.332;2024-03-02T02:29:47;99371.64;;;25.10;40.92
39275;BME280;24980;48.874;2.332;2024-03-02T02:32:17;99366.88;;;25.12;40.90
39275;BME280;24980;48.874;2.332;2024-03-02T02:34:52;99358.17;;;25.14;40.89
39275;BME280;24980;48.874;2.332;2024-03-02T02:37:17;99356.28;;;25.15;40.89
39275;BME280;24980;48.874;2.332;2024-03-02T02:39:47;99353.52;;;25.14;40.89
39275;BME280;24980;48.874;2.332;2024-03-02T02:42:18;99356.23;;;25.16;40.86
39275;BME280;24980;48.874;2.332;2024-03-02T02:44:48;99353.45;;;25.16;40.87
39275;BME280;24980;48.874;2.332;2024-03-02T02:47:18;99345.14;;;25.16;40.86
39275;BME280;24980;48.874;2.332;2024-03-02T02:49:48;99344.36;;;25.14;40.88
39275;BME280;24980;48.874;2.332;2024-03-02T02:52:18;99336.89;;;25.14;40.89
39275;BME280;24980;48.874;2.332;2024-03-02T02:54:49;99336.93;;;25.15;40.88
39275;BME280;24980;48.874;2.332;2024-03-02T02:57:18;99333.14;;;25.18;40.85
39275;BME280;24980;48.874;2.332;2024-03-02T02:59:48;99331.66;;;25.19;40.83
39275;BME280;24980;48.874;2.332;2024-03-02T03:02:18;99320.70;;;25.20;40.79
39275;BME280;24980;48.874;2.332;2024-03-02T03:04:48;99322.91;;;25.17;40.80
39275;BME280;24980;48.874;2.332;2024-03-02T03:07:19;99320.44;;;25.16;40.81
39275;BME280;24980;48.874;2.332;2024-03-02T03:09:49;99318.39;;;25.15;40.84
39275;BME280;24980;48.874;2.332;2024-03-02T03:12:19;99321.94;;;25.17;40.83
39275;BME280;24980;48.874;2.332;2024-03-02T03:14:49;99318.34;;;25.19;40.79
39275;BME280;24980;48.874;2.332;2024-03-02T03:17:22;99311.61;;;25.20;40.78
39275;BME280;24980;48.874;2.332;2024-03-02T03:19:50;99309.31;;;25.22;40.76
39275;BME280;24980;48.874;2.332;2024-03-02T03:22:20;99311.48;;;25.24;40.74
39275;BME280;24980;48.874;2.332;2024-03-02T03:24:50;99315.58;;;25.25;40.73
39275;BME280;24980;48.874;2.332;2024-03-02T03:27:21;99310.52;;;25.25;40.71
39275;BME280;24980;48.874;2.332;2024-03-02T03:29:51;99309.34;;;25.21;40.74
39275;BME280;24980;48.874;2.332;2024-03-02T03:32:21;99310.11;;;25.21;40.75
39275;BME280;24980;48.874;2.332;2024-03-02T03:34:51;99316.31;;;25.21;40.74
39275;BME280;24980;48.874;2.332;2024-03-02T03:37:21;99311.97;;;25.21;40.73
39275;BME280;24980;48.874;2.332;2024-03-02T03:39:51;99311.94;;;25.22;40.71
39275;BME280;24980;48.874;2.332;2024-03-02T03:42:22;99314.70;;;25.23;40.71
39275;BME280;24980;48.874;2.332;2024-03-02T03:44:52;99304.67;;;25.23;40.68
39275;BME280;24980;48.874;2.332;2024-03-02T03:47:22;99312.64;;;25.23;40.68
39275;BME280;24980;48.874;2.332;2024-03-02T03:49:52;99310.16;;;25.20;40.71
39275;BME280;24980;48.874;2.332;2024-03-02T03:52:22;99311.69;;;25.22;40.71
39275;BME280;24980;48.874;2.332;2024-03-02T03:54:53;99307.41;;;25.23;40.71
39275;BME280;24980;48.874;2.332;2024-03-02T03:57:23;99307.67;;;25.22;40.71
39275;BME280;24980;48.874;2.332;2024-03-02T03:59:53;99309.49;;;25.23;40.71
39275;BME280;24980;48.874;2.332;2024-03-02T04:02:23;99307.78;;;25.25;40.68
39275;BME280;24980;48.874;2.332;2024-03-02T04:04:53;99307.73;;;25.26;40.67
39275;BME280;24980;48.874;2.332;2024-03-02T04:07:23;99307.83;;;25.26;40.66
39275;BME280;24980;48.874;2.332;2024-03-02T04:09:54;99298.16;;;25.23;40.69
39275;BME280;24980;48.874;2.332;2024-03-02T04:12:24;99295.99;;;25.22;40.71
39275;BME280;24980;48.874;2.332;2024-03-02T04:14:54;99305.05;;;25.22;40.72
39275;BME280;24980;48.874;2.332;2024-03-02T04:17:24;99295.52;;;25.24;40.70
39275;BME280;24980;48.874;2.332;2024-03-02T04:19:54;99298.25;;;25.24;40.68
39275;BME280;24980;48.874;2.332;2024-03-02T04:22:24;99293.91;;;25.24;40.67
39275;BME280;24980;48.874;2.332;2024-03-02T04:24:54;99293.80;;;25.27;40.64
39275;BME280;24980;48.874;2.332;2024-03-02T04:27:24;99289.83;;;25.28;40.62
39275;BME280;24980;48.874;2.332;2024-03-02T04:29:54;99305.24;;;25.28;40.62
39275;BME280;24980;48.874;2.332;2024-03-02T04:32:25;99307.55;;;25.28;40.62
39275;BME280;24980;48.874;2.332;2024-03-02T04:34:55;99299.80;;;25.29;40.60
39275;BME280;24980;48.874;2.332;2024-03-02T04:37:25;99301.08;;;25.28;40.60
39275;BME280;24980;48.874;2.332;2024-03-02T04:39:55;99298.83;;;25.29;40.58
39275;BME280;24980;48.874;2.332;2024-03-02T04:42:27;99293.72;;;25.30;40.56
39275;BME280;24980;48.874;2.332;2024-03-02T04:44:56;99291.77;;;25.31;40.54
39275;BME280;24980;48.874;2.332;2024-03-02T04:47:26;99296.91;;;25.33;40.50
39275;BME280;24980;48.874;2.332;2024-03-02T04:49:57;99302.91;;;25.32;40.50
39275;BME280;24980;48.874;2.332;2024-03-02T04:52:27;99305.88;;;25.33;40.51
39275;BME280;24980;48.874;2.332;2024-03-02T04:54:57;99306.47;;;25.34;40.48
39275;BME280;24980;48.874;2.332;2024-03-02T04:57:27;99303.73;;;25.34;40.46
39275;BME280;24980;48.874;2.332;2024-03-02T04:59:57;99303.08;;;25.34;40.46
39275;BME280;24980;48.874;2.332;2024-03-02T05:02:27;99294.70;;;25.33;40.44
39275;BME280;24980;48.874;2.332;2024-03-02T05:04:59;99302.98;;;25.34;40.42
39275;BME280;24980;48.874;2.332;2024-03-02T05:07:28;99296.78;;;25.33;40.41
39275;BME280;24980;48.874;2.332;2024-03-02T05:09:58;99296.02;;;25.33;40.39
39275;BME280;24980;48.874;2.332;2024-03-02T05:12:28;99291.20;;;25.31;40.41
39275;BME280;24980;48.874;2.332;2024-03-02T05:14:59;99283.85;;;25.29;40.43
39275;BME280;24980;48.874;2.332;2024-03-02T05:17:29;99279.92;;;25.27;40.43
39275;BME280;24980;48.874;2.332;2024-03-02T05:19:59;99272.29;;;25.26;40.44
39275;BME280;24980;48.874;2.332;2024-03-02T05:22:29;99271.34;;;25.26;40.44
39275;BME280;24980;48.874;2.332;2024-03-02T05:24:59;99265.42;;;25.29;40.41
39275;BME280;24980;48.874;2.332;2024-03-02T05:27:30;99263.02;;;25.30;40.38
39275;BME280;24980;48.874;2.332;2024-03-02T05:30:00;99260.45;;;25.29;40.39
39275;BME280;24980;48.874;2.332;2024-03-02T05:32:31;99258.68;;;25.28;40.39
39275;BME280;24980;48.874;2.332;2024-03-02T05:35:01;99267.42;;;25.28;40.39
39275;BME280;24980;48.874;2.332;2024-03-02T05:37:31;99266.58;;;25.28;40.40
39275;BME280;24980;48.874;2.332;2024-03-02T05:40:03;99264.91;;;25.29;40.41
39275;BME280;24980;48.874;2.332;2024-03-02T05:42:32;99261.27;;;25.29;40.43
39275;BME280;24980;48.874;2.332;2024-03-02T05:45:03;99265.03;;;25.32;40.41
39275;BME280;24980;48.874;2.332;2024-03-02T05:47:33;99260.66;;;25.33;40.40
39275;BME280;24980;48.874;2.332;2024-03-02T05:50:03;99260.41;;;25.34;40.38
39275;BME280;24980;48.874;2.332;2024-03-02T05:52:33;99260.39;;;25.33;40.39
39275;BME280;24980;48.874;2.332;2024-03-02T05:55:05;99258.86;;;25.34;40.40
39275;BME280;24980;48.874;2.332;2024-03-02T05:57:34;99255.66;;;25.34;40.39
39275;BME280;24980;48.874;2.332;2024-03-02T06:00:05;99259.64;;;25.33;40.39
39275;BME280;24980;48.874;2.332;2024-03-02T06:02:34;99257.34;;;25.34;40.38
39275;BME280;24980;48.874;2.332;2024-03-02T06:05:04;99256.09;;;25.36;40.37
39275;BME280;24980;48.874;2.332;2024-03-02T06:07:35;99257.42;;;25.36;40.37
39275;BME280;24980;48.874;2.332;2024-03-02T06:10:05;99262.98;;;25.35;40.37
39275;BME280;24980;48.874;2.332;2024-03-02T06:12:35;99257.17;;;25.33;40.40
39275;BME280;24980;48.874;2.332;2024-03-02T06:15:06;99258.38;;;25.33;40.40
39275;BME280;24980;48.874;2.332;2024-03-02T06:17:36;99259.40;;;25.33;40.41
39275;BME280;24980;48.874;2.332;2024-03-02T06:20:08;99260.15;;;25.33;40.41
39275;BME280;24980;48.874;2.332;2024-03-02T06:22:37;99262.11;;;25.34;40.40
39275;BME280;24980;48.874;2.332;2024-03-02T06:25:07;99262.09;;;25.36;40.37
39275;BME280;24980;48.874;2.332;2024-03-02T06:27:37;99252.52;;;25.37;40.34
39275;BME280;24980;48.874;2.332;2024-03-02T06:30:08;99246.54;;;25.38;40.35
39275;BME280;24980;48.874;2.332;2024-03-02T06:32:38;99237.48;;;25.37;40.36
39275;BME280;24980;48.874;2.332;2024-03-02T06:35:08;99242.00;;;25.37;40.37
39275;BME280;24980;48.874;2.332;2024-03-02T06:37:39;99247.58;;;25.36;40.40
39275;BME280;24980;48.874;2.332;2024-03-02T06:40:09;99242.17;;;25.37;40.41
39275;BME280;24980;48.874;2.332;2024-03-02T06:42:39;99238.20;;;25.36;40.41
39275;BME280;24980;48.874;2.332;2024-03-02T06:45:09;99242.20;;;25.35;40.42
39275;BME280;24980;48.874;2.332;2024-03-02T06:47:39;99242.35;;;25.39;40.39
39275;BME280;24980;48.874;2.332;2024-03-02T06:50:09;99236.95;;;25.40;40.38
39275;BME280;24980;48.874;2.332;2024-03-02T06:52:39;99251.05;;;25.41;40.38
39275;BME280;24980;48.874;2.332;2024-03-02T06:55:10;99244.88;;;25.41;40.38
39275;BME280;24980;48.874;2.332;2024-03-02T06:57:40;99249.21;;;25.39;40.40
39275;BME280;24980;48.874;2.332;2024-03-02T07:00:10;99247.70;;;25.39;40.40
39275;BME280;24980;48.874;2.332;2024-03-02T07:02:41;99244.53;;;25.38;40.42
39275;BME280;24980;48.874;2.332;2024-03-02T07:05:11;99248.28;;;25.36;40.45
39275;BME280;24980;48.874;2.332;2024-03-02T07:07:41;99243.31;;;25.35;40.47
39275;BME280;24980;48.874;2.332;2024-03-02T07:10:11;99241.23;;;25.37;40.46
39275;BME280;24980;48.874;2.332;2024-03-02T07:12:41;99243.92;;;25.38;40.45
39275;BME280;24980;48.874;2.332;2024-03-02T07:15:12;99235.40;;;25.40;40.43
39275;BME280;24980;48.874;2.332;2024-03-02T07:17:42;99231.52;;;25.40;40.43
39275;BME280;24980;48.874;2.332;2024-03-02T07:20:12;99238.13;;;25.38;40.45
39275;BME280;24980;48.874;2.332;2024-03-02T07:22:42;99239.53;;;25.37;40.49
39275;BME280;24980;48.874;2.332;2024-03-02T07:25:13;99240.95;;;25.38;40.48
39275;BME280;24980;48.874;2.332;2024-03-02T07:27:43;99236.22;;;25.36;40.53
39275;BME280;24980;48.874;2.332;2024-03-02T07:30:16;99240.27;;;25.38;40.52
39275;BME280;24980;48.874;2.332;2024-03-02T07:32:44;99234.14;;;25.42;40.50
39275;BME280;24980;48.874;2.332;2024-03-02T07:35:14;99225.31;;;25.43;40.46
39275;BME280;24980;48.874;2.332;2024-03-02T07:37:44;99234.38;;;25.40;40.46
39275;BME280;24980;48.874;2.332;2024-03-02T07:40:14;99232.46;;;25.38;40.48
39275;BME280;24980;48.874;2.332;2024-03-02T07:42:45;99235.70;;;25.35;40.50
39275;BME280;24980;48.874;2.332;2024-03-02T07:45:16;99229.86;;;25.33;40.54
39275;BME280;24980;48.874;2.332;2024-03-02T07:47:46;99223.09;;;25.34;40.53
39275;BME280;24980;48.874;2.332;2024-03-02T07:50:16;99222.49;;;25.34;40.55
39275;BME280;24980;48.874;2.332;2024-03-02T07:52:46;99221.57;;;25.34;40.56
39275;BME280;24980;48.874;2.332;2024-03-02T07:55:16;99219.88;;;25.34;40.53
39275;BME280;24980;48.874;2.332;2024-03-02T07:57:46;99224.10;;;25.36;40.48
39275;BME280;24980;48.874;2.332;2024-03-02T08:00:17;99223.75;;;25.34;40.48
39275;BME280;24980;48.874;2.332;2024-03-02T08:02:47;99225.55;;;25.33;40.51
39275;BME280;24980;48.874;2.332;2024-03-02T08:05:17;99222.45;;;25.28;40.56
39275;BME280;24980;48.874;2.332;2024-03-02T08:07:47;99228.12;;;25.26;40.59
39275;BME280;24980;48.874;2.332;2024-03-02T08:10:18;99227.77;;;25.24;40.64
39275;BME280;24980;48.874;2.332;2024-03-02T08:12:48;99233.70;;;25.23;40.63
39275;BME280;24980;48.874;2.332;2024-03-02T08:15:18;99234.07;;;25.22;40.61
39275;BME280;24980;48.874;2.332;2024-03-02T08:17:48;99229.47;;;25.24;40.59
39275;BME280;24980;48.874;2.332;2024-03-02T08:20:18;99225.23;;;25.24;40.57
39275;BME280;24980;48.874;2.332;2024-03-02T08:22:49;99222.49;;;25.23;40.55
39275;BME280;24980;48.874;2.332;2024-03-02T08:25:19;99222.58;;;25.21;40.56
39275;BME280;24980;48.874;2.332;2024-03-02T08:27:49;99227.03;;;25.19;40.58
39275;BME280;24980;48.874;2.332;2024-03-02T08:30:20;99223.50;;;25.18;40.58
39275;BME280;24980;48.874;2.332;2024-03-02T08:32:50;99227.50;;;25.20;40.57
39275;BME280;24980;48.874;2.332;2024-03-02T08:35:20;99221.48;;;25.21;40.54
39275;BME280;24980;48.874;2.332;2024-03-02T08:37:50;99211.23;;;25.20;40.53
39275;BME280;24980;48.874;2.332;2024-03-02T08:40:21;99217.92;;;25.17;40.54
39275;BME280;24980;48.874;2.332;2024-03-02T08:42:53;99223.24;;;25.15;40.56
39275;BME280;24980;48.874;2.332;2024-03-02T08:45:22;99217.84;;;25.18;40.52
39275;BME280;24980;48.874;2.332;2024-03-02T08:47:52;99230.17;;;25.22;40.47
39275;BME280;24980;48.874;2.332;2024-03-02T08:50:22;99226.15;;;25.24;40.42
39275;BME280;24980;48.874;2.332;2024-03-02T08:52:52;99224.38;;;25.23;40.43
39275;BME280;24980;48.874;2.332;2024-03-02T08:55:24;99221.15;;;25.20;40.48
39275;BME280;24980;48.874;2.332;2024-03-02T08:57:53;99218.98;;;25.19;40.52
39275;BME280;24980;48.874;2.332;2024-03-02T09:00:24;99229.48;;;25.21;40.51
39275;BME280;24980;48.874;2.332;2024-03-02T09:02:55;99223.20;;;25.21;40.51
39275;BME280;24980;48.874;2.332;2024-03-02T09:05:23;99224.41;;;25.22;40.49
39275;BME280;24980;48.874;2.332;2024-03-02T09:07:53;99226.29;;;25.22;40.49
39275;BME280;24980;48.874;2.332;2024-03-02T09:10:23;99222.09;;;25.26;40.46
39275;BME280;24980;48.874;2.332;2024-03-02T09:12:53;99227.83;;;25.34;40.41
39275;BME280;24980;48.874;2.332;2024-03-02T09:15:23;99229.94;;;25.47;40.33
39275;BME280;24980;48.874;2.332;2024-03-02T09:17:53;99228.02;;;25.60;40.24
39275;BME280;24980;48.874;2.332;2024-03-02T09:20:23;99225.84;;;25.64;40.21
39275;BME280;24980;48.874;2.332;2024-03-02T09:22:54;99223.78;;;25.61;40.24
39275;BME280;24980;48.874;2.332;2024-03-02T09:25:24;99219.73;;;25.55;40.34
39275;BME280;24980;48.874;2.332;2024-03-02T09:27:54;99219.45;;;25.49;40.41
39275;BME280;24980;48.874;2.332;2024-03-02T09:30:24;99216.05;;;25.42;40.47
39275;BME280;24980;48.874;2.332;2024-03-02T09:32:54;99217.73;;;25.39;40.52
39275;BME280;24980;48.874;2.332;2024-03-02T09:35:27;99217.54;;;25.41;40.50
39275;BME280;24980;48.874;2.332;2024-03-02T09:37:55;99211.89;;;25.40;40.48
39275;BME280;24980;48.874;2.332;2024-03-02T09:40:26;99211.14;;;25.28;40.60
39275;BME280;24980;48.874;2.332;2024-03-02T09:42:56;99214.38;;;25.23;40.64
39275;BME280;24980;48.874;2.332;2024-03-02T09:45:26;99212.38;;;25.19;40.64
39275;BME280;24980;48.874;2.332;2024-03-02T09:47:56;99202.68;;;25.16;40.68
39275;BME280;24980;48.874;2.332;2024-03-02T09:50:27;99196.79;;;25.14;40.70
39275;BME280;24980;48.874;2.332;2024-03-02T09:52:58;99193.83;;;25.12;40.69
39275;BME280;24980;48.874;2.332;2024-03-02T09:55:28;99187.68;;;25.13;40.70
39275;BME280;24980;48.874;2.332;2024-03-02T09:57:58;99181.35;;;25.12;40.68
39275;BME280;24980;48.874;2.332;2024-03-02T10:00:28;99175.20;;;25.10;40.71
39275;BME280;24980;48.874;2.332;2024-03-02T10:02:58;99172.30;;;25.08;40.68
39275;BME280;24980;48.874;2.332;2024-03-02T10:05:28;99170.62;;;25.04;40.73
39275;BME280;24980;48.874;2.332;2024-03-02T10:08:02;99171.48;;;24.97;40.78
39275;BME280;24980;48.874;2.332;2024-03-02T10:10:36;99164.50;;;24.95;40.83
39275;BME280;24980;48.874;2.332;2024-03-02T10:13:03;99161.12;;;24.98;40.83
39275;BME280;24980;48.874;2.332;2024-03-02T10:15:30;99158.92;;;25.01;40.82
39275;BME280;24980;48.874;2.332;2024-03-02T10:18:02;99151.09;;;24.99;40.84
39275;BME280;24980;48.874;2.332;2024-03-02T10:20:31;99151.99;;;25.00;40.85
39275;BME280;24980;48.874;2.332;2024-03-02T10:23:12;99157.64;;;25.02;40.87
39275;BME280;24980;48.874;2.332;2024-03-02T10:25:32;99158.56;;;25.02;40.91
39275;BME280;24980;48.874;2.332;2024-03-02T10:28:02;99144.20;;;25.03;40.94
39275;BME280;24980;48.874;2.332;2024-03-02T10:30:33;99145.39;;;25.03;40.96
39275;BME280;24980;48.874;2.332;2024-03-02T10:33:03;99152.77;;;25.03;40.94
39275;BME280;24980;48.874;2.332;2024-03-02T10:35:32;99154.08;;;25.05;40.91
39275;BME280;24980;48.874;2.332;2024-03-02T10:38:04;99151.91;;;25.08;40.93
39275;BME280;24980;48.874;2.332;2024-03-02T10:40:33;99152.23;;;25.11;40.93
39275;BME280;24980;48.874;2.332;2024-03-02T10:43:03;99150.20;;;25.13;40.96
39275;BME280;24980;48.874;2.332;2024-03-02T10:45:33;99145.86;;;25.10;41.00
39275;BME280;24980;48.874;2.332;2024-03-02T10:48:05;99147.65;;;25.08;41.02
39275;BME280;24980;48.874;2.332;2024-03-02T10:50:33;99141.62;;;25.07;41.04
39275;BME280;24980;48.874;2.332;2024-03-02T10:53:04;99139.17;;;25.07;41.07
39275;BME280;24980;48.874;2.332;2024-03-02T10:55:34;99136.65;;;25.08;41.10
39275;BME280;24980;48.874;2.332;2024-03-02T10:58:04;99143.73;;;25.09;41.12
39275;BME280;24980;48.874;2.332;2024-03-02T11:00:38;99147.02;;;25.09;41.11
39275;BME280;24980;48.874;2.332;2024-03-02T11:03:06;99154.88;;;25.11;41.11
39275;BME280;24980;48.874;2.332;2024-03-02T11:05:40;99161.47;;;25.13;41.12
39275;BME280;24980;48.874;2.332;2024-03-02T11:08:13;99149.52;;;25.14;41.13
39275;BME280;24980;48.874;2.332;2024-03-02T11:10:45;99150.88;;;25.13;41.18
39275;BME280;24980;48.874;2.332;2024-03-02T11:13:09;99143.69;;;25.13;41.22
39275;BME280;24980;48.874;2.332;2024-03-02T11:15:40;99146.70;;;25.14;41.25
39275;BME280;24980;48.874;2.332;2024-03-02T11:18:09;99144.34;;;25.13;41.29
39275;BME280;24980;48.874;2.332;2024-03-02T11:20:40;99139.33;;;25.15;41.31
39275;BME280;24980;48.874;2.332;2024-03-02T11:23:10;99138.80;;;25.15;41.33
39275;BME280;24980;48.874;2.332;2024-03-02T11:25:40;99147.56;;;25.14;41.35
39275;BME280;24980;48.874;2.332;2024-03-02T11:28:10;99137.34;;;25.15;41.35
39275;BME280;24980;48.874;2.332;2024-03-02T11:30:49;99140.23;;;25.15;41.37
39275;BME280;24980;48.874;2.332;2024-03-02T11:33:10;99149.42;;;25.14;41.39
39275;BME280;24980;48.874;2.332;2024-03-02T11:35:42;99141.44;;;25.14;41.43
39275;BME280;24980;48.874;2.332;2024-03-02T11:38:11;99135.94;;;25.13;41.45
39275;BME280;24980;48.874;2.332;2024-03-02T11:40:42;99137.62;;;25.12;41.46
39275;BME280;24980;48.874;2.332;2024-03-02T11:43:12;99139.76;;;25.11;41.49
39275;BME280;24980;48.874;2.332;2024-03-02T11:45:45;99131.36;;;25.12;41.49
39275;BME280;24980;48.874;2.332;2024-03-02T11:48:16;99129.47;;;25.12;41.49
39275;BME280;24980;48.874;2.332;2024-03-02T11:50:47;99122.02;;;25.14;41.46
39275;BME280;24980;48.874;2.332;2024-03-02T11:53:17;99122.18;;;25.15;41.44
39275;BME280;24980;48.874;2.332;2024-03-02T11:55:45;99116.12;;;25.14;41.45
39275;BME280;24980;48.874;2.332;2024-03-02T11:58:16;99122.86;;;25.14;41.46
39275;BME280;24980;48.874;2.332;2024-03-02T12:00:47;99123.63;;;25.14;41.46
39275;BME280;24980;48.874;2.332;2024-03-02T12:03:17;99117.89;;;25.14;41.45
39275;BME280;24980;48.874;2.332;2024-03-02T12:05:49;99118.38;;;25.15;41.47
39275;BME280;24980;48.874;2.332;2024-03-02T12:08:20;99111.80;;;25.16;41.43
39275;BME280;24980;48.874;2.332;2024-03-02T12:11:01;99111.57;;;25.15;41.42
39275;BME280;24980;48.874;2.332;2024-03-02T12:13:17;99112.90;;;25.14;41.42
39275;BME280;24980;48.874;2.332;2024-03-02T12:15:47;99105.59;;;25.13;41.41
39275;BME280;24980;48.874;2.332;2024-03-02T12:18:17;99102.80;;;25.14;41.40
39275;BME280;24980;48.874;2.332;2024-03-02T12:20:49;99103.45;;;25.14;41.39
39275;BME280;24980;48.874;2.332;2024-03-02T12:23:18;99104.55;;;25.12;41.38
39275;BME280;24980;48.874;2.332;2024-03-02T12:25:49;99105.94;;;25.11;41.39
39275;BME280;24980;48.874;2.332;2024-03-02T12:28:20;99098.90;;;25.10;41.39
39275;BME280;24980;48.874;2.332;2024-03-02T12:30:51;99102.14;;;25.10;41.39
39275;BME280;24980;48.874;2.332;2024-03-02T12:33:21;99105.84;;;25.08;41.40
39275;BME280;24980;48.874;2.332;2024-03-02T12:35:51;99101.24;;;25.09;41.40
39275;BME280;24980;48.874;2.332;2024-03-02T12:38:21;99104.91;;;25.10;41.39
39275;BME280;24980;48.874;2.332;2024-03-02T12:40:52;99105.24;;;25.12;41.35
39275;BME280;24980;48.874;2.332;2024-03-02T12:43:22;99097.02;;;25.11;41.35
39275;BME280;24980;48.874;2.332;2024-03-02T12:45:53;99090.76;;;25.10;41.34
39275;BME280;24980;48.874;2.332;2024-03-02T12:48:23;99089.86;;;25.09;41.31
39275;BME280;24980;48.874;2.332;2024-03-02T12:50:53;99087.39;;;25.10;41.31
39275;BME280;24980;48.874;2.332;2024-03-02T12:53:23;99088.22;;;25.10;41.30
39275;BME280;24980;48.874;2.332;2024-03-02T12:55:54;99094.95;;;25.09;41.29
39275;BME280;24980;48.874;2.332;2024-03-02T12:58:24;99079.98;;;25.09;41.29
39275;BME280;24980;48.874;2.332;2024-03-02T13:01:07;99084.24;;;25.07;41.29
39275;BME280;24980;48.874;2.332;2024-03-02T13:03:25;99082.34;;;25.06;41.29
39275;BME280;24980;48.874;2.332;2024-03-02T13:05:56;99086.61;;;25.07;41.27
39275;BME280;24980;48.874;2.332;2024-03-02T13:08:26;99089.94;;;25.07;41.28
39275;BME280;24980;48.874;2.332;2024-03-02T13:10:56;99083.62;;;25.05;41.29
39275;BME280;24980;48.874;2.332;2024-03-02T13:13:26;99084.21;;;25.06;41.28
39275;BME280;24980;48.874;2.332;2024-03-02T13:16:00;99084.86;;;25.04;41.28